CheckWX is a tool to help pilots better visualize weather data.  It is not intended as a substitute for an official pre-flight weather briefing.

02:26:30 UTC

FNUE TAF
Luena Airport
Luena, Angola
TAF FNUE 222245Z 2300/2312 18005KT 9000 FEW016 SCT023 TEMPO 2303/2307 VRB03KT 2000 BR BKN016 OVC020 BECMG 2310/2312 09005KT 9999 TS SCT023 FEW025CB

Apr-23@
00:00 UTC

Apr-23 @ 00:00 UTC

Apr-23@
10:00 UTC

Apr-23 @ 10:00 UTC

TAF FNUE 222245Z 2300/2312 18005KT 9000 FEW016 SCT023
Wind
  • 180° at 5 KTS
Cloud Levels
  • Few at 1,600' AGL
  • Scattered at 2,300' AGL

Apr-23@
03:00 UTC

Apr-23 @ 03:00 UTC

Apr-23@
07:00 UTC

Apr-23 @ 07:00 UTC

TEMPO 2303/2307 VRB03KT 2000 BR BKN016 OVC020

Temporary

Temporary Changes expected for less than half the time period

Wind
  • Variable at 3 KTS
Conditions
Mist
Cloud Levels
  • Broken at 1,600' AGL
  • Overcast at 2,000' AGL

Apr-23@
10:00 UTC

Apr-23 @ 10:00 UTC

Apr-23@
12:00 UTC

Apr-23 @ 12:00 UTC

BECMG 2310/2312 09005KT 9999 TS SCT023 FEW025CB

Becoming

Becoming Conditions expected by Tue, Apr 23, 2019 @ 12:00 UTC

Wind
  • 090° at 5 KTS
Conditions
Thunderstorm
Cloud Levels
  • Scattered at 2,300' AGL
  • Few at 2,500' AGL